createdAt,value
2023-10-01T00:01:47.044Z,96101.53
2023-10-01T00:06:49.319Z,96104.25
2023-10-01T00:11:51.424Z,96108.84
2023-10-01T00:16:53.624Z,96110.72
2023-10-01T00:21:56.360Z,96111.03
2023-10-01T00:26:58.489Z,96105.94
2023-10-01T00:32:01.066Z,96102.44
2023-10-01T00:37:04.073Z,96105.13
2023-10-01T00:42:07.663Z,96108.63
2023-10-01T00:47:09.777Z,96099.22
2023-10-01T00:52:11.864Z,96097.63
2023-10-01T00:57:16.883Z,96086.31
2023-10-01T01:02:19.489Z,96087.13
2023-10-01T01:07:21.803Z,96087.94
2023-10-01T01:12:25.456Z,96086.31
2023-10-01T01:17:27.745Z,96077.44
2023-10-01T01:22:30.154Z,96090.91
2023-10-01T01:27:33.121Z,96089.03
2023-10-01T01:32:37.577Z,96085.31
2023-10-01T01:37:47.824Z,96082.63
2023-10-01T01:42:50.165Z,96083.72
2023-10-01T01:47:52.665Z,96090.19
2023-10-01T01:53:05.347Z,96074.31
2023-10-01T01:58:10.699Z,96073.50
2023-10-01T02:03:16.274Z,96074.31
2023-10-01T02:08:36.595Z,96067.31
2023-10-01T02:13:42.785Z,96066.50
2023-10-01T02:18:58.366Z,96057.13
2023-10-01T02:24:00.594Z,96066.81
2023-10-01T02:29:03.594Z,96063.59
2023-10-01T02:34:10.213Z,96060.09
2023-10-01T02:39:21.083Z,96062.81
2023-10-01T02:44:23.161Z,96055.81
2023-10-01T02:49:25.515Z,96065.78
2023-10-01T02:54:28.035Z,96051.78
2023-10-01T02:59:30.320Z,96057.47
2023-10-01T03:04:34.783Z,96061.75
2023-10-01T03:09:41.113Z,96059.38
2023-10-01T03:15:02.470Z,96062.06
2023-10-01T03:20:27.789Z,96055.88
2023-10-01T03:25:57.348Z,96045.38
2023-10-01T03:31:10.291Z,96044.28
2023-10-01T03:36:13.774Z,96045.38
2023-10-01T03:41:22.665Z,96038.66
2023-10-01T03:46:28.338Z,96045.97
2023-10-01T03:51:51.567Z,96050.25
2023-10-01T03:56:58.054Z,96043.84
2023-10-01T04:02:01.027Z,96045.75
2023-10-01T04:07:12.568Z,96054.34
2023-10-01T04:12:29.022Z,96042.25
2023-10-01T04:17:31.132Z,96041.16
2023-10-01T04:22:34.505Z,96039.56
2023-10-01T04:27:43.680Z,96047.66
2023-10-01T04:32:47.909Z,96049.53
2023-10-01T04:37:52.686Z,96049.53
2023-10-01T04:43:03.089Z,96057.63
2023-10-01T04:48:17.524Z,96057.94
2023-10-01T04:53:23.428Z,96048.25
2023-10-01T04:58:25.785Z,96049.34
2023-10-01T05:03:40.482Z,96053.94
2023-10-01T05:08:44.294Z,96050.13
2023-10-01T05:13:52.777Z,96055.81
2023-10-01T05:19:14.692Z,96065.00
2023-10-01T05:24:33.131Z,96064.50
2023-10-01T05:29:36.219Z,96068.78
2023-10-01T05:34:47.870Z,96067.19
2023-10-01T05:45:14.048Z,96074.47
2023-10-01T05:50:19.417Z,96071.78
2023-10-01T05:55:23.389Z,96070.19
2023-10-01T06:00:29.411Z,96056.69
2023-10-01T06:05:34.812Z,96053.44
2023-10-01T06:10:37.128Z,96059.66
2023-10-01T06:15:41.022Z,96063.16
2023-10-01T06:20:43.562Z,96063.16
2023-10-01T06:25:52.511Z,96072.88
2023-10-01T06:30:54.654Z,96072.06
2023-10-01T06:36:15.474Z,96076.38
2023-10-01T06:41:27.243Z,96088.97
2023-10-01T06:46:29.563Z,96082.78
2023-10-01T06:51:45.228Z,96078.50
2023-10-01T06:56:49.054Z,96090.88
2023-10-01T07:01:52.042Z,96088.19
2023-10-01T07:06:54.699Z,96099.75
2023-10-01T07:11:57.972Z,96110.25
2023-10-01T07:17:02.042Z,96103.25
2023-10-01T07:22:08.175Z,96107.78
2023-10-01T07:27:13.590Z,96110.47
2023-10-01T07:32:15.860Z,96116.66
2023-10-01T07:37:27.824Z,96110.19
2023-10-01T07:42:30.098Z,96114.47
2023-10-01T07:47:33.786Z,96115.50
2023-10-01T07:52:38.423Z,96117.91
2023-10-01T07:57:49.268Z,96118.41
2023-10-01T08:03:09.875Z,96124.31
2023-10-01T08:08:15.236Z,96125.09
2023-10-01T08:13:26.340Z,96128.34
2023-10-01T08:18:36.621Z,96124.56
2023-10-01T08:23:47.252Z,96124.25
2023-10-01T08:28:59.959Z,96119.38
2023-10-01T08:34:22.685Z,96117.19
2023-10-01T08:39:35.610Z,96117.69
2023-10-01T08:44:52.432Z,96112.50
2023-10-01T08:49:57.138Z,96127.31
2023-10-01T08:54:59.268Z,96127.00
2023-10-01T09:00:01.968Z,96134.00
2023-10-01T09:05:09.332Z,96130.22
2023-10-01T09:10:19.484Z,96133.91
2023-10-01T09:15:31.003Z,96126.38
2023-10-01T09:21:01.674Z,96127.88
2023-10-01T09:26:03.838Z,96124.22
2023-10-01T09:31:44.430Z,96136.50
2023-10-01T09:36:47.403Z,96128.00
2023-10-01T09:41:50.627Z,96139.22
2023-10-01T09:46:53.614Z,96126.22
2023-10-01T09:52:00.072Z,96135.56
2023-10-01T09:57:09.845Z,96139.25
2023-10-01T10:02:12.557Z,96135.97
2023-10-01T10:07:26.738Z,96129.66
2023-10-01T10:12:35.560Z,96124.75
2023-10-01T10:18:17.590Z,96130.06
2023-10-01T10:23:31.038Z,96128.66
2023-10-01T10:28:56.443Z,96129.69
2023-10-01T10:34:38.007Z,96119.25
2023-10-01T10:39:52.087Z,96117.47
2023-10-01T10:45:25.157Z,96117.56
2023-10-01T10:51:17.320Z,96120.97
2023-10-01T10:56:36.887Z,96113.06
2023-10-01T11:01:48.001Z,96112.75
2023-10-01T11:07:06.381Z,96096.56
2023-10-01T11:12:23.298Z,96104.78
2023-10-01T11:17:25.764Z,96098.88
2023-10-01T11:22:27.965Z,96091.38
2023-10-01T11:27:45.776Z,96087.97
2023-10-01T11:33:15.496Z,96083.97
2023-10-01T11:38:21.248Z,96072.34
2023-10-01T11:43:28.927Z,96067.25
2023-10-01T11:48:38.760Z,96058.84
2023-10-01T11:53:57.142Z,96054.53
2023-10-01T11:58:59.489Z,96048.84
2023-10-01T12:04:01.640Z,96046.75
2023-10-01T12:09:03.994Z,96037.53
2023-10-01T12:14:07.470Z,96035.34
2023-10-01T12:19:25.582Z,96030.13
2023-10-01T12:24:30.064Z,96026.72
2023-10-01T12:29:44.217Z,96026.91
2023-10-01T12:34:47.820Z,96029.31
2023-10-01T12:39:51.971Z,96031.72
2023-10-01T12:45:13.986Z,96020.91
2023-10-01T12:50:16.175Z,96012.19
2023-10-01T12:55:18.230Z,96001.38
2023-10-01T13:00:24.446Z,96000.78
2023-10-01T13:05:29.203Z,96001.59
2023-10-01T13:10:39.420Z,95989.97
2023-10-01T13:15:46.028Z,95986.97
2023-10-01T13:21:00.821Z,95982.34
2023-10-01T13:26:10.961Z,95983.69
2023-10-01T13:31:31.998Z,95984.19
2023-10-01T13:36:52.410Z,95975.78
2023-10-01T13:42:13.888Z,95975.00
2023-10-01T13:47:34.819Z,95962.28
2023-10-01T13:52:57.592Z,95961.19
2023-10-01T13:58:18.064Z,95963.88
2023-10-01T14:03:38.735Z,95950.38
2023-10-01T14:08:47.296Z,95949.56
2023-10-01T14:13:51.340Z,95949.25
2023-10-01T14:18:57.498Z,95954.19
2023-10-01T14:24:18.874Z,95947.66
2023-10-01T14:29:24.010Z,95946.56
2023-10-01T14:34:26.184Z,95945.75
2023-10-01T14:39:32.170Z,95944.16
2023-10-01T14:44:44.185Z,95936.53
2023-10-01T14:49:46.459Z,95933.53
2023-10-01T14:54:48.569Z,95938.63
2023-10-01T14:59:50.634Z,95941.34
2023-10-01T15:04:52.750Z,95938.50
2023-10-01T15:10:06.852Z,95932.94
2023-10-01T15:15:28.376Z,95931.94
2023-10-01T15:20:49.183Z,95934.66
2023-10-01T15:25:51.377Z,95932.75
2023-10-01T15:30:53.641Z,95925.75
2023-10-01T15:35:56.052Z,95926.53
2023-10-01T15:40:58.891Z,95930.34
2023-10-01T15:46:13.547Z,95932.25
2023-10-01T15:51:27.371Z,95938.44
2023-10-01T15:56:32.647Z,95941.16
2023-10-01T16:01:35.097Z,95933.03
2023-10-01T16:06:37.381Z,95943.06
2023-10-01T16:11:39.464Z,95941.47
2023-10-01T16:16:42.021Z,95939.88
2023-10-01T16:21:45.608Z,95940.44
2023-10-01T16:26:48.409Z,95945.31
2023-10-01T16:31:50.620Z,95948.03
2023-10-01T16:36:53.644Z,95954.53
2023-10-01T16:41:55.799Z,95955.94
2023-10-01T16:46:59.949Z,95950.53
2023-10-01T16:52:03.751Z,95956.25
2023-10-01T16:57:13.619Z,95954.66
2023-10-01T17:02:20.977Z,95956.56
2023-10-01T17:07:23.211Z,95955.25
2023-10-01T17:12:25.847Z,95957.16
2023-10-01T17:17:29.117Z,95957.47
2023-10-01T17:22:32.761Z,95955.88
2023-10-01T17:27:35.243Z,95958.09
2023-10-01T17:32:37.407Z,95955.69
2023-10-01T17:37:39.912Z,95963.00
2023-10-01T17:42:42.853Z,95959.00
2023-10-01T17:47:45.761Z,95970.88
2023-10-01T17:52:49.299Z,95974.69
2023-10-01T17:57:51.456Z,95972.28
2023-10-01T18:03:02.428Z,95977.97
2023-10-01T18:08:05.414Z,95976.09
2023-10-01T18:13:28.119Z,95981.28
2023-10-01T18:18:31.032Z,95983.81
2023-10-01T18:23:33.284Z,95981.22
2023-10-01T18:28:36.819Z,95984.22
2023-10-01T18:33:46.954Z,95986.13
2023-10-01T18:38:51.982Z,95978.31
2023-10-01T18:43:55.039Z,95977.03
2023-10-01T18:48:57.229Z,95972.41
2023-10-01T18:53:59.462Z,95975.13
2023-10-01T18:59:01.808Z,95980.28
2023-10-01T19:04:10.962Z,95980.91
2023-10-01T19:09:21.939Z,95989.28
2023-10-01T19:14:25.307Z,95988.19
2023-10-01T19:19:30.002Z,95981.19
2023-10-01T19:24:35.877Z,95980.69
2023-10-01T19:29:38.024Z,95983.41
2023-10-01T19:34:45.112Z,95978.31
2023-10-01T19:39:47.568Z,95984.81
2023-10-01T19:45:05.342Z,95989.41
2023-10-01T19:50:30.235Z,95983.31
2023-10-01T19:55:35.407Z,95981.22
2023-10-01T20:00:37.596Z,95985.09
2023-10-01T20:05:41.232Z,95981.34
2023-10-01T20:10:46.406Z,95987.44
2023-10-01T20:15:49.549Z,95991.44
2023-10-01T20:20:56.823Z,95984.75
2023-10-01T20:25:59.910Z,95980.34
2023-10-01T20:31:02.524Z,95979.84
2023-10-01T20:36:04.796Z,95976.72
2023-10-01T20:41:16.361Z,95975.91
2023-10-01T20:46:18.976Z,95974.91
2023-10-01T20:51:34.897Z,95971.72
2023-10-01T20:56:38.229Z,95962.63
2023-10-01T21:02:01.124Z,95956.22
2023-10-01T21:07:13.194Z,95961.50
2023-10-01T21:12:17.169Z,95959.91
2023-10-01T21:17:28.534Z,95960.81
2023-10-01T21:22:31.049Z,95957.69
2023-10-01T21:27:35.239Z,95956.81
2023-10-01T21:32:37.403Z,95961.09
2023-10-01T21:37:39.717Z,95961.41
2023-10-01T21:42:43.170Z,95953.06
2023-10-01T21:47:45.302Z,95962.88
2023-10-01T21:52:48.316Z,95949.47
2023-10-01T21:57:51.205Z,95945.69
2023-10-01T22:03:05.693Z,95945.97
2023-10-01T22:08:26.111Z,95944.97
2023-10-01T22:13:30.468Z,95941.47
2023-10-01T22:18:33.214Z,95938.88
2023-10-01T22:23:36.418Z,95931.31
2023-10-01T22:28:39.796Z,95925.13
2023-10-01T22:33:42.181Z,95924.91
2023-10-01T22:38:51.670Z,95920.91
2023-10-01T22:44:01.376Z,95916.91
2023-10-01T22:49:05.448Z,95915.81
2023-10-01T22:54:07.559Z,95918.59
2023-10-01T22:59:09.692Z,95925.38
2023-10-01T23:04:18.075Z,95922.78
2023-10-01T23:09:21.051Z,95906.38
2023-10-01T23:14:24.341Z,95915.63
2023-10-01T23:19:35.898Z,95898.66
2023-10-01T23:24:42.598Z,95914.03
2023-10-01T23:29:46.148Z,95900.25
2023-10-01T23:34:55.058Z,95908.06
2023-10-01T23:40:02.689Z,95907.03
2023-10-01T23:45:05.969Z,95916.72
2023-10-01T23:50:26.903Z,95901.94
2023-10-01T23:55:34.004Z,95900.13
